Terminal Aerodrome Forecast
Issued by NWS

Current Version | Previous Version | Graphics & Text | Print | Product List | Glossary On
Versions: 1 2 3 4 5 6 7 8 9 10 11 12 13 14 15 16 17 18 19 20 21 22 23 24
786
FTUS41 KILN 200334 AAB
TAFLUK
TAF AMD
KLUK 200334Z 2004/2024 00000KT 2SM BR SCT009
      TEMPO 2004/2008 1/2SM FG VV005
     FM200800 00000KT 1/2SM FG VV005
     FM201400 00000KT 2SM BR BKN008
     FM201500 VRB03KT P6SM SCT015
     FM201800 13005KT P6SM SCT200=

USA.gov is the U.S. government's official web portal to all federal, state and local government web resources and services.